Graceville, Florida
Current Conditions -  °F | °C
As of 1:58 AM on Wednesday 26 Nov 2014 (Local Time) from K1J0 Reporting Station
Clear Clear  
Wind Chill: 48°   Ceiling: Unl
Heat Index: 48°   Visibility: 10mi
Dew Point: 45°   Wind: 3mph
Humidity: 89%   Direction: NA
Pressure: 30.07"   Gusts: NA
Location:  30.96°N, 85.52°W
Report Text: K1J0 260758Z AUTO VRB03KT 10SM CLR 09/07 A3007 RMK AO2 RAE01 SLP166 P0000 T00890072
Loading
Personal Weather Stations






























Interactive Weather Map New forecast layout! Learn more

10-Day Weather Forecast

Advertisements
Track Severe Weather on mobile